sensor_id;sensor_type;location;lat;lon;timestamp;P1;durP1;ratioP1;P2;durP2;ratioP2
58338;SDS011;68636;52.704;6.536;2024-03-06T00:01:48;18.88;;;9.63;;
58338;SDS011;68636;52.704;6.536;2024-03-06T00:04:14;20.63;;;9.80;;
58338;SDS011;68636;52.704;6.536;2024-03-06T00:06:40;18.23;;;9.43;;
58338;SDS011;68636;52.704;6.536;2024-03-06T00:09:06;22.10;;;9.65;;
58338;SDS011;68636;52.704;6.536;2024-03-06T00:11:33;20.30;;;9.43;;
58338;SDS011;68636;52.704;6.536;2024-03-06T00:14:02;17.45;;;8.75;;
58338;SDS011;68636;52.704;6.536;2024-03-06T00:16:30;18.23;;;8.65;;
58338;SDS011;68636;52.704;6.536;2024-03-06T00:18:56;17.20;;;8.35;;
58338;SDS011;68636;52.704;6.536;2024-03-06T00:21:22;17.90;;;8.50;;
58338;SDS011;68636;52.704;6.536;2024-03-06T00:23:48;15.82;;;8.05;;
58338;SDS011;68636;52.704;6.536;2024-03-06T00:26:14;16.95;;;7.57;;
58338;SDS011;68636;52.704;6.536;2024-03-06T00:28:40;14.93;;;6.93;;
58338;SDS011;68636;52.704;6.536;2024-03-06T00:31:07;17.15;;;7.22;;
58338;SDS011;68636;52.704;6.536;2024-03-06T00:33:33;15.33;;;6.80;;
58338;SDS011;68636;52.704;6.536;2024-03-06T00:35:59;14.88;;;7.50;;
58338;SDS011;68636;52.704;6.536;2024-03-06T00:38:25;14.43;;;7.05;;
58338;SDS011;68636;52.704;6.536;2024-03-06T00:40:51;13.30;;;6.10;;
58338;SDS011;68636;52.704;6.536;2024-03-06T00:43:17;13.63;;;6.38;;
58338;SDS011;68636;52.704;6.536;2024-03-06T00:45:44;16.13;;;6.60;;
58338;SDS011;68636;52.704;6.536;2024-03-06T00:48:10;18.23;;;6.80;;
58338;SDS011;68636;52.704;6.536;2024-03-06T00:50:36;17.98;;;6.55;;
58338;SDS011;68636;52.704;6.536;2024-03-06T00:53:02;13.60;;;6.53;;
58338;SDS011;68636;52.704;6.536;2024-03-06T00:57:55;14.57;;;5.88;;
58338;SDS011;68636;52.704;6.536;2024-03-06T01:00:21;14.13;;;6.13;;
58338;SDS011;68636;52.704;6.536;2024-03-06T01:02:48;14.38;;;6.53;;
58338;SDS011;68636;52.704;6.536;2024-03-06T01:05:14;15.35;;;5.93;;
58338;SDS011;68636;52.704;6.536;2024-03-06T01:07:40;12.90;;;6.25;;
58338;SDS011;68636;52.704;6.536;2024-03-06T01:10:06;12.43;;;6.13;;
58338;SDS011;68636;52.704;6.536;2024-03-06T01:12:33;13.50;;;6.03;;
58338;SDS011;68636;52.704;6.536;2024-03-06T01:14:59;15.75;;;6.07;;
58338;SDS011;68636;52.704;6.536;2024-03-06T01:17:25;14.73;;;5.97;;
58338;SDS011;68636;52.704;6.536;2024-03-06T01:19:51;11.93;;;5.75;;
58338;SDS011;68636;52.704;6.536;2024-03-06T01:22:18;12.25;;;5.70;;
58338;SDS011;68636;52.704;6.536;2024-03-06T01:24:44;16.43;;;6.03;;
58338;SDS011;68636;52.704;6.536;2024-03-06T01:27:10;15.18;;;5.88;;
58338;SDS011;68636;52.704;6.536;2024-03-06T01:29:36;13.05;;;5.75;;
58338;SDS011;68636;52.704;6.536;2024-03-06T01:32:02;17.77;;;6.43;;
58338;SDS011;68636;52.704;6.536;2024-03-06T01:34:29;14.10;;;5.90;;
58338;SDS011;68636;52.704;6.536;2024-03-06T01:36:55;14.90;;;5.95;;
58338;SDS011;68636;52.704;6.536;2024-03-06T01:39:21;12.50;;;5.95;;
58338;SDS011;68636;52.704;6.536;2024-03-06T01:41:48;15.57;;;6.15;;
58338;SDS011;68636;52.704;6.536;2024-03-06T01:44:15;15.52;;;6.22;;
58338;SDS011;68636;52.704;6.536;2024-03-06T01:46:42;14.07;;;5.78;;
58338;SDS011;68636;52.704;6.536;2024-03-06T01:49:08;13.20;;;6.30;;
58338;SDS011;68636;52.704;6.536;2024-03-06T01:51:35;16.45;;;6.60;;
58338;SDS011;68636;52.704;6.536;2024-03-06T01:54:01;15.43;;;6.27;;
58338;SDS011;68636;52.704;6.536;2024-03-06T01:56:33;14.23;;;5.72;;
58338;SDS011;68636;52.704;6.536;2024-03-06T01:59:00;14.88;;;6.30;;
58338;SDS011;68636;52.704;6.536;2024-03-06T02:01:27;16.90;;;6.65;;
58338;SDS011;68636;52.704;6.536;2024-03-06T02:03:53;15.10;;;6.30;;
58338;SDS011;68636;52.704;6.536;2024-03-06T02:06:20;14.48;;;6.07;;
58338;SDS011;68636;52.704;6.536;2024-03-06T02:08:47;16.10;;;6.10;;
58338;SDS011;68636;52.704;6.536;2024-03-06T02:11:13;14.77;;;6.00;;
58338;SDS011;68636;52.704;6.536;2024-03-06T02:13:42;20.02;;;6.28;;
58338;SDS011;68636;52.704;6.536;2024-03-06T02:16:11;17.75;;;6.75;;
58338;SDS011;68636;52.704;6.536;2024-03-06T02:18:37;14.60;;;5.68;;
58338;SDS011;68636;52.704;6.536;2024-03-06T02:21:04;14.20;;;6.07;;
58338;SDS011;68636;52.704;6.536;2024-03-06T02:23:32;11.75;;;5.95;;
58338;SDS011;68636;52.704;6.536;2024-03-06T02:25:58;14.57;;;6.32;;
58338;SDS011;68636;52.704;6.536;2024-03-06T02:28:24;23.20;;;6.97;;
58338;SDS011;68636;52.704;6.536;2024-03-06T02:30:50;14.43;;;5.80;;
58338;SDS011;68636;52.704;6.536;2024-03-06T02:33:17;17.10;;;7.03;;
58338;SDS011;68636;52.704;6.536;2024-03-06T02:35:43;15.32;;;6.57;;
58338;SDS011;68636;52.704;6.536;2024-03-06T02:38:11;12.80;;;6.03;;
58338;SDS011;68636;52.704;6.536;2024-03-06T02:40:42;15.15;;;6.00;;
58338;SDS011;68636;52.704;6.536;2024-03-06T02:43:09;13.43;;;6.13;;
58338;SDS011;68636;52.704;6.536;2024-03-06T02:45:35;13.77;;;6.30;;
58338;SDS011;68636;52.704;6.536;2024-03-06T02:48:01;13.25;;;6.22;;
58338;SDS011;68636;52.704;6.536;2024-03-06T02:50:27;17.10;;;6.35;;
58338;SDS011;68636;52.704;6.536;2024-03-06T02:52:53;13.15;;;6.25;;
58338;SDS011;68636;52.704;6.536;2024-03-06T02:55:21;15.35;;;6.45;;
58338;SDS011;68636;52.704;6.536;2024-03-06T02:57:47;15.13;;;5.93;;
58338;SDS011;68636;52.704;6.536;2024-03-06T03:00:13;14.73;;;6.88;;
58338;SDS011;68636;52.704;6.536;2024-03-06T03:02:41;16.65;;;6.05;;
58338;SDS011;68636;52.704;6.536;2024-03-06T03:07:34;15.55;;;6.00;;
58338;SDS011;68636;52.704;6.536;2024-03-06T03:10:00;13.48;;;6.38;;
58338;SDS011;68636;52.704;6.536;2024-03-06T03:12:26;14.45;;;6.07;;
58338;SDS011;68636;52.704;6.536;2024-03-06T03:14:52;15.95;;;6.22;;
58338;SDS011;68636;52.704;6.536;2024-03-06T03:17:18;14.80;;;5.82;;
58338;SDS011;68636;52.704;6.536;2024-03-06T03:19:45;13.77;;;6.78;;
58338;SDS011;68636;52.704;6.536;2024-03-06T03:22:11;16.83;;;6.50;;
58338;SDS011;68636;52.704;6.536;2024-03-06T03:24:38;15.38;;;7.07;;
58338;SDS011;68636;52.704;6.536;2024-03-06T03:27:04;19.53;;;6.93;;
58338;SDS011;68636;52.704;6.536;2024-03-06T03:29:31;17.10;;;6.38;;
58338;SDS011;68636;52.704;6.536;2024-03-06T03:31:58;19.25;;;6.80;;
58338;SDS011;68636;52.704;6.536;2024-03-06T03:34:24;15.20;;;6.25;;
58338;SDS011;68636;52.704;6.536;2024-03-06T03:36:50;12.52;;;5.75;;
58338;SDS011;68636;52.704;6.536;2024-03-06T03:39:16;16.52;;;6.80;;
58338;SDS011;68636;52.704;6.536;2024-03-06T03:41:45;15.73;;;7.17;;
58338;SDS011;68636;52.704;6.536;2024-03-06T03:44:15;14.85;;;6.13;;
58338;SDS011;68636;52.704;6.536;2024-03-06T03:46:41;15.68;;;6.57;;
58338;SDS011;68636;52.704;6.536;2024-03-06T03:49:08;13.73;;;6.33;;
58338;SDS011;68636;52.704;6.536;2024-03-06T03:51:35;17.33;;;7.22;;
58338;SDS011;68636;52.704;6.536;2024-03-06T03:54:01;16.08;;;6.10;;
58338;SDS011;68636;52.704;6.536;2024-03-06T03:56:27;12.90;;;6.28;;
58338;SDS011;68636;52.704;6.536;2024-03-06T03:58:55;15.43;;;6.03;;
58338;SDS011;68636;52.704;6.536;2024-03-06T04:03:48;14.18;;;6.47;;
58338;SDS011;68636;52.704;6.536;2024-03-06T04:06:14;12.70;;;5.95;;
58338;SDS011;68636;52.704;6.536;2024-03-06T04:08:40;16.88;;;6.80;;
58338;SDS011;68636;52.704;6.536;2024-03-06T04:11:06;12.07;;;6.05;;
58338;SDS011;68636;52.704;6.536;2024-03-06T04:13:36;17.35;;;6.40;;
58338;SDS011;68636;52.704;6.536;2024-03-06T04:16:02;14.32;;;6.18;;
58338;SDS011;68636;52.704;6.536;2024-03-06T04:18:29;19.02;;;7.00;;
58338;SDS011;68636;52.704;6.536;2024-03-06T04:21:04;16.10;;;7.03;;
58338;SDS011;68636;52.704;6.536;2024-03-06T04:23:31;17.90;;;7.68;;
58338;SDS011;68636;52.704;6.536;2024-03-06T04:25:58;14.38;;;6.80;;
58338;SDS011;68636;52.704;6.536;2024-03-06T04:28:24;15.37;;;6.40;;
58338;SDS011;68636;52.704;6.536;2024-03-06T04:30:50;16.75;;;7.05;;
58338;SDS011;68636;52.704;6.536;2024-03-06T04:33:22;21.42;;;7.80;;
58338;SDS011;68636;52.704;6.536;2024-03-06T04:35:48;15.70;;;7.22;;
58338;SDS011;68636;52.704;6.536;2024-03-06T04:38:14;16.13;;;7.47;;
58338;SDS011;68636;52.704;6.536;2024-03-06T04:40:40;18.02;;;7.13;;
58338;SDS011;68636;52.704;6.536;2024-03-06T04:43:07;20.63;;;7.97;;
58338;SDS011;68636;52.704;6.536;2024-03-06T04:45:33;17.10;;;6.55;;
58338;SDS011;68636;52.704;6.536;2024-03-06T04:47:59;17.35;;;7.00;;
58338;SDS011;68636;52.704;6.536;2024-03-06T04:50:25;16.85;;;6.93;;
58338;SDS011;68636;52.704;6.536;2024-03-06T04:52:52;18.35;;;7.28;;
58338;SDS011;68636;52.704;6.536;2024-03-06T04:55:18;15.77;;;7.25;;
58338;SDS011;68636;52.704;6.536;2024-03-06T04:57:48;16.63;;;7.13;;
58338;SDS011;68636;52.704;6.536;2024-03-06T05:00:15;19.00;;;7.60;;
58338;SDS011;68636;52.704;6.536;2024-03-06T05:02:41;15.73;;;7.05;;
58338;SDS011;68636;52.704;6.536;2024-03-06T05:05:08;18.15;;;7.78;;
58338;SDS011;68636;52.704;6.536;2024-03-06T05:07:34;17.73;;;7.70;;
58338;SDS011;68636;52.704;6.536;2024-03-06T05:10:01;16.60;;;7.93;;
58338;SDS011;68636;52.704;6.536;2024-03-06T05:12:27;20.75;;;7.95;;
58338;SDS011;68636;52.704;6.536;2024-03-06T05:14:53;17.55;;;7.72;;
58338;SDS011;68636;52.704;6.536;2024-03-06T05:17:20;18.05;;;7.65;;
58338;SDS011;68636;52.704;6.536;2024-03-06T05:19:46;18.30;;;8.07;;
58338;SDS011;68636;52.704;6.536;2024-03-06T05:22:14;17.55;;;8.32;;
58338;SDS011;68636;52.704;6.536;2024-03-06T05:24:40;18.88;;;7.80;;
58338;SDS011;68636;52.704;6.536;2024-03-06T05:27:07;18.10;;;8.55;;
58338;SDS011;68636;52.704;6.536;2024-03-06T05:29:33;24.02;;;8.57;;
58338;SDS011;68636;52.704;6.536;2024-03-06T05:32:01;23.33;;;8.95;;
58338;SDS011;68636;52.704;6.536;2024-03-06T05:34:28;22.48;;;9.25;;
58338;SDS011;68636;52.704;6.536;2024-03-06T05:36:57;19.92;;;9.15;;
58338;SDS011;68636;52.704;6.536;2024-03-06T05:39:23;21.02;;;8.40;;
58338;SDS011;68636;52.704;6.536;2024-03-06T05:41:55;29.02;;;9.38;;
58338;SDS011;68636;52.704;6.536;2024-03-06T05:44:21;23.08;;;9.63;;
58338;SDS011;68636;52.704;6.536;2024-03-06T05:46:48;22.45;;;8.88;;
58338;SDS011;68636;52.704;6.536;2024-03-06T05:49:14;22.85;;;8.23;;
58338;SDS011;68636;52.704;6.536;2024-03-06T05:51:40;23.13;;;9.23;;
58338;SDS011;68636;52.704;6.536;2024-03-06T05:54:06;21.25;;;10.40;;
58338;SDS011;68636;52.704;6.536;2024-03-06T05:56:36;21.70;;;9.98;;
58338;SDS011;68636;52.704;6.536;2024-03-06T05:59:04;39.08;;;10.13;;
58338;SDS011;68636;52.704;6.536;2024-03-06T06:01:36;26.70;;;9.95;;
58338;SDS011;68636;52.704;6.536;2024-03-06T06:04:02;22.95;;;10.18;;
58338;SDS011;68636;52.704;6.536;2024-03-06T06:06:28;25.58;;;10.13;;
58338;SDS011;68636;52.704;6.536;2024-03-06T06:08:55;22.95;;;9.63;;
58338;SDS011;68636;52.704;6.536;2024-03-06T06:11:21;23.15;;;9.70;;
58338;SDS011;68636;52.704;6.536;2024-03-06T06:13:47;29.63;;;10.40;;
58338;SDS011;68636;52.704;6.536;2024-03-06T06:16:13;27.73;;;10.32;;
58338;SDS011;68636;52.704;6.536;2024-03-06T06:18:42;27.92;;;10.60;;
58338;SDS011;68636;52.704;6.536;2024-03-06T06:21:08;24.83;;;9.70;;
58338;SDS011;68636;52.704;6.536;2024-03-06T06:23:35;25.30;;;9.93;;
58338;SDS011;68636;52.704;6.536;2024-03-06T06:26:01;25.25;;;9.77;;
58338;SDS011;68636;52.704;6.536;2024-03-06T06:28:27;25.13;;;10.82;;
58338;SDS011;68636;52.704;6.536;2024-03-06T06:30:53;28.10;;;11.87;;
58338;SDS011;68636;52.704;6.536;2024-03-06T06:33:19;29.65;;;11.48;;
58338;SDS011;68636;52.704;6.536;2024-03-06T06:35:46;24.73;;;10.70;;
58338;SDS011;68636;52.704;6.536;2024-03-06T06:38:12;28.03;;;10.30;;
58338;SDS011;68636;52.704;6.536;2024-03-06T06:40:38;29.58;;;11.68;;
58338;SDS011;68636;52.704;6.536;2024-03-06T06:45:31;28.88;;;11.02;;
58338;SDS011;68636;52.704;6.536;2024-03-06T06:47:57;27.67;;;11.45;;
58338;SDS011;68636;52.704;6.536;2024-03-06T06:50:24;28.80;;;11.80;;
58338;SDS011;68636;52.704;6.536;2024-03-06T06:52:52;27.27;;;11.88;;
58338;SDS011;68636;52.704;6.536;2024-03-06T06:55:18;35.10;;;11.83;;
58338;SDS011;68636;52.704;6.536;2024-03-06T06:57:48;26.02;;;10.85;;
58338;SDS011;68636;52.704;6.536;2024-03-06T07:00:14;33.50;;;12.85;;
58338;SDS011;68636;52.704;6.536;2024-03-06T07:02:43;27.63;;;11.85;;
58338;SDS011;68636;52.704;6.536;2024-03-06T07:05:10;31.63;;;12.03;;
58338;SDS011;68636;52.704;6.536;2024-03-06T07:07:36;30.13;;;11.48;;
58338;SDS011;68636;52.704;6.536;2024-03-06T07:10:03;28.70;;;11.27;;
58338;SDS011;68636;52.704;6.536;2024-03-06T07:12:29;28.52;;;10.98;;
58338;SDS011;68636;52.704;6.536;2024-03-06T07:14:56;27.67;;;11.55;;
58338;SDS011;68636;52.704;6.536;2024-03-06T07:17:23;31.75;;;12.48;;
58338;SDS011;68636;52.704;6.536;2024-03-06T07:19:49;35.43;;;12.87;;
58338;SDS011;68636;52.704;6.536;2024-03-06T07:22:16;30.40;;;12.02;;
58338;SDS011;68636;52.704;6.536;2024-03-06T07:24:42;25.60;;;11.10;;
58338;SDS011;68636;52.704;6.536;2024-03-06T07:27:09;34.75;;;11.98;;
58338;SDS011;68636;52.704;6.536;2024-03-06T07:29:35;28.95;;;11.65;;
58338;SDS011;68636;52.704;6.536;2024-03-06T07:32:01;27.83;;;11.82;;
58338;SDS011;68636;52.704;6.536;2024-03-06T07:34:28;25.85;;;11.20;;
58338;SDS011;68636;52.704;6.536;2024-03-06T07:36:54;30.38;;;11.77;;
58338;SDS011;68636;52.704;6.536;2024-03-06T07:39:20;36.10;;;11.88;;
58338;SDS011;68636;52.704;6.536;2024-03-06T07:41:46;32.30;;;13.57;;
58338;SDS011;68636;52.704;6.536;2024-03-06T07:44:13;33.33;;;11.95;;
58338;SDS011;68636;52.704;6.536;2024-03-06T07:46:39;38.77;;;15.30;;
58338;SDS011;68636;52.704;6.536;2024-03-06T07:49:05;38.80;;;16.95;;
58338;SDS011;68636;52.704;6.536;2024-03-06T07:51:34;42.63;;;19.65;;
58338;SDS011;68636;52.704;6.536;2024-03-06T07:54:01;29.20;;;11.73;;
58338;SDS011;68636;52.704;6.536;2024-03-06T07:56:29;32.45;;;12.68;;
58338;SDS011;68636;52.704;6.536;2024-03-06T07:58:55;33.67;;;13.80;;
58338;SDS011;68636;52.704;6.536;2024-03-06T08:01:23;29.75;;;11.70;;
58338;SDS011;68636;52.704;6.536;2024-03-06T08:03:49;30.45;;;11.88;;
58338;SDS011;68636;52.704;6.536;2024-03-06T08:06:15;31.27;;;12.95;;
58338;SDS011;68636;52.704;6.536;2024-03-06T08:08:42;30.05;;;11.85;;
58338;SDS011;68636;52.704;6.536;2024-03-06T08:13:36;27.85;;;11.23;;
58338;SDS011;68636;52.704;6.536;2024-03-06T08:16:02;35.77;;;12.50;;
58338;SDS011;68636;52.704;6.536;2024-03-06T08:18:29;24.67;;;10.18;;
58338;SDS011;68636;52.704;6.536;2024-03-06T08:20:56;30.05;;;11.95;;
58338;SDS011;68636;52.704;6.536;2024-03-06T08:23:22;32.17;;;12.77;;
58338;SDS011;68636;52.704;6.536;2024-03-06T08:25:49;30.02;;;11.93;;
58338;SDS011;68636;52.704;6.536;2024-03-06T08:28:15;27.75;;;13.95;;
58338;SDS011;68636;52.704;6.536;2024-03-06T08:30:41;22.83;;;10.85;;
58338;SDS011;68636;52.704;6.536;2024-03-06T08:33:10;30.10;;;12.50;;
58338;SDS011;68636;52.704;6.536;2024-03-06T08:35:37;29.73;;;12.18;;
58338;SDS011;68636;52.704;6.536;2024-03-06T08:38:03;25.17;;;11.70;;
58338;SDS011;68636;52.704;6.536;2024-03-06T08:40:29;28.02;;;12.32;;
58338;SDS011;68636;52.704;6.536;2024-03-06T08:42:55;29.23;;;11.50;;
58338;SDS011;68636;52.704;6.536;2024-03-06T08:45:22;26.45;;;12.48;;
58338;SDS011;68636;52.704;6.536;2024-03-06T08:47:50;28.50;;;12.23;;
58338;SDS011;68636;52.704;6.536;2024-03-06T08:50:19;26.08;;;12.75;;
58338;SDS011;68636;52.704;6.536;2024-03-06T08:52:45;29.67;;;15.43;;
58338;SDS011;68636;52.704;6.536;2024-03-06T08:55:12;33.58;;;15.90;;
58338;SDS011;68636;52.704;6.536;2024-03-06T08:57:38;26.98;;;12.23;;
58338;SDS011;68636;52.704;6.536;2024-03-06T09:00:05;31.92;;;14.00;;
58338;SDS011;68636;52.704;6.536;2024-03-06T09:02:35;29.75;;;13.10;;
58338;SDS011;68636;52.704;6.536;2024-03-06T09:05:01;33.30;;;13.13;;
58338;SDS011;68636;52.704;6.536;2024-03-06T09:07:29;27.10;;;12.20;;
58338;SDS011;68636;52.704;6.536;2024-03-06T09:09:55;28.63;;;11.82;;
58338;SDS011;68636;52.704;6.536;2024-03-06T09:12:22;28.77;;;13.27;;
58338;SDS011;68636;52.704;6.536;2024-03-06T09:14:48;25.30;;;11.98;;
58338;SDS011;68636;52.704;6.536;2024-03-06T09:17:14;32.55;;;12.52;;
58338;SDS011;68636;52.704;6.536;2024-03-06T09:19:41;19.53;;;9.00;;
58338;SDS011;68636;52.704;6.536;2024-03-06T09:22:07;28.27;;;13.27;;
58338;SDS011;68636;52.704;6.536;2024-03-06T09:24:33;33.28;;;12.90;;
58338;SDS011;68636;52.704;6.536;2024-03-06T09:27:04;29.38;;;13.45;;
58338;SDS011;68636;52.704;6.536;2024-03-06T09:29:30;33.07;;;13.77;;
58338;SDS011;68636;52.704;6.536;2024-03-06T09:31:56;35.08;;;13.65;;
58338;SDS011;68636;52.704;6.536;2024-03-06T09:34:23;37.15;;;14.10;;
58338;SDS011;68636;52.704;6.536;2024-03-06T09:36:49;30.30;;;13.30;;
58338;SDS011;68636;52.704;6.536;2024-03-06T09:39:16;32.30;;;13.60;;
58338;SDS011;68636;52.704;6.536;2024-03-06T09:41:45;31.25;;;14.23;;
58338;SDS011;68636;52.704;6.536;2024-03-06T09:44:12;31.63;;;14.15;;
58338;SDS011;68636;52.704;6.536;2024-03-06T09:46:48;38.55;;;18.60;;
58338;SDS011;68636;52.704;6.536;2024-03-06T09:49:15;29.40;;;13.18;;
58338;SDS011;68636;52.704;6.536;2024-03-06T09:51:43;29.95;;;13.18;;
58338;SDS011;68636;52.704;6.536;2024-03-06T09:54:11;31.65;;;14.10;;
58338;SDS011;68636;52.704;6.536;2024-03-06T09:56:40;29.50;;;14.43;;
58338;SDS011;68636;52.704;6.536;2024-03-06T09:59:08;30.48;;;14.30;;
58338;SDS011;68636;52.704;6.536;2024-03-06T10:01:35;29.10;;;14.20;;
58338;SDS011;68636;52.704;6.536;2024-03-06T10:04:22;31.55;;;14.60;;
58338;SDS011;68636;52.704;6.536;2024-03-06T10:06:50;31.63;;;13.73;;
58338;SDS011;68636;52.704;6.536;2024-03-06T10:09:16;28.98;;;13.52;;
58338;SDS011;68636;52.704;6.536;2024-03-06T10:11:43;32.45;;;14.20;;
58338;SDS011;68636;52.704;6.536;2024-03-06T10:14:09;34.08;;;14.48;;
58338;SDS011;68636;52.704;6.536;2024-03-06T10:16:35;36.33;;;14.70;;
58338;SDS011;68636;52.704;6.536;2024-03-06T10:19:14;31.90;;;14.85;;
58338;SDS011;68636;52.704;6.536;2024-03-06T10:21:43;35.58;;;15.75;;
58338;SDS011;68636;52.704;6.536;2024-03-06T10:24:10;30.77;;;13.57;;
58338;SDS011;68636;52.704;6.536;2024-03-06T10:26:36;31.50;;;14.43;;
58338;SDS011;68636;52.704;6.536;2024-03-06T10:29:02;32.92;;;13.77;;
58338;SDS011;68636;52.704;6.536;2024-03-06T10:31:28;32.97;;;14.85;;
58338;SDS011;68636;52.704;6.536;2024-03-06T10:33:55;34.67;;;13.82;;
58338;SDS011;68636;52.704;6.536;2024-03-06T10:36:21;34.05;;;14.93;;
58338;SDS011;68636;52.704;6.536;2024-03-06T10:38:48;28.75;;;14.57;;
58338;SDS011;68636;52.704;6.536;2024-03-06T10:41:16;32.15;;;14.98;;
58338;SDS011;68636;52.704;6.536;2024-03-06T10:43:45;34.90;;;14.65;;
58338;SDS011;68636;52.704;6.536;2024-03-06T10:46:14;29.98;;;14.30;;
58338;SDS011;68636;52.704;6.536;2024-03-06T10:48:40;33.50;;;14.93;;
58338;SDS011;68636;52.704;6.536;2024-03-06T10:51:07;32.58;;;14.60;;
58338;SDS011;68636;52.704;6.536;2024-03-06T10:53:34;36.50;;;15.63;;
58338;SDS011;68636;52.704;6.536;2024-03-06T10:56:01;32.13;;;15.53;;
58338;SDS011;68636;52.704;6.536;2024-03-06T10:58:27;30.98;;;14.15;;
58338;SDS011;68636;52.704;6.536;2024-03-06T11:00:54;32.47;;;14.90;;
58338;SDS011;68636;52.704;6.536;2024-03-06T11:03:23;34.08;;;15.13;;
58338;SDS011;68636;52.704;6.536;2024-03-06T11:05:49;31.02;;;14.55;;
58338;SDS011;68636;52.704;6.536;2024-03-06T11:08:16;34.80;;;15.45;;
58338;SDS011;68636;52.704;6.536;2024-03-06T11:10:43;30.23;;;14.63;;
58338;SDS011;68636;52.704;6.536;2024-03-06T11:15:48;32.65;;;14.75;;
58338;SDS011;68636;52.704;6.536;2024-03-06T11:23:27;30.80;;;13.80;;
58338;SDS011;68636;52.704;6.536;2024-03-06T11:28:19;36.10;;;16.13;;
58338;SDS011;68636;52.704;6.536;2024-03-06T11:30:46;30.25;;;15.35;;
58338;SDS011;68636;52.704;6.536;2024-03-06T11:33:14;32.22;;;14.70;;
58338;SDS011;68636;52.704;6.536;2024-03-06T11:38:29;34.47;;;15.75;;
58338;SDS011;68636;52.704;6.536;2024-03-06T11:40:55;31.90;;;15.68;;
58338;SDS011;68636;52.704;6.536;2024-03-06T11:43:26;31.58;;;15.48;;
58338;SDS011;68636;52.704;6.536;2024-03-06T11:45:53;32.33;;;15.18;;
58338;SDS011;68636;52.704;6.536;2024-03-06T11:48:19;31.75;;;15.65;;
58338;SDS011;68636;52.704;6.536;2024-03-06T11:53:13;44.70;;;17.13;;
58338;SDS011;68636;52.704;6.536;2024-03-06T11:58:06;34.20;;;15.20;;
58338;SDS011;68636;52.704;6.536;2024-03-06T12:00:33;28.50;;;13.88;;
58338;SDS011;68636;52.704;6.536;2024-03-06T12:02:59;29.45;;;13.95;;
58338;SDS011;68636;52.704;6.536;2024-03-06T12:05:25;30.48;;;15.05;;
58338;SDS011;68636;52.704;6.536;2024-03-06T12:07:53;35.25;;;14.93;;
58338;SDS011;68636;52.704;6.536;2024-03-06T12:10:19;29.83;;;14.35;;
58338;SDS011;68636;52.704;6.536;2024-03-06T12:12:46;29.73;;;15.47;;
58338;SDS011;68636;52.704;6.536;2024-03-06T12:15:15;29.95;;;14.55;;
58338;SDS011;68636;52.704;6.536;2024-03-06T12:17:45;30.83;;;15.82;;
58338;SDS011;68636;52.704;6.536;2024-03-06T12:20:12;31.20;;;14.52;;
58338;SDS011;68636;52.704;6.536;2024-03-06T12:22:50;30.23;;;14.38;;
58338;SDS011;68636;52.704;6.536;2024-03-06T12:25:23;30.75;;;15.23;;
58338;SDS011;68636;52.704;6.536;2024-03-06T12:27:51;32.20;;;14.80;;
58338;SDS011;68636;52.704;6.536;2024-03-06T12:30:17;31.58;;;14.20;;
58338;SDS011;68636;52.704;6.536;2024-03-06T12:32:44;28.35;;;14.20;;
58338;SDS011;68636;52.704;6.536;2024-03-06T12:35:10;30.05;;;15.07;;
58338;SDS011;68636;52.704;6.536;2024-03-06T12:37:36;29.27;;;14.07;;
58338;SDS011;68636;52.704;6.536;2024-03-06T12:40:03;30.25;;;13.88;;
58338;SDS011;68636;52.704;6.536;2024-03-06T12:42:30;28.55;;;14.05;;
58338;SDS011;68636;52.704;6.536;2024-03-06T12:44:56;31.92;;;15.82;;
58338;SDS011;68636;52.704;6.536;2024-03-06T12:47:22;31.45;;;14.35;;
58338;SDS011;68636;52.704;6.536;2024-03-06T12:49:48;30.30;;;15.20;;
58338;SDS011;68636;52.704;6.536;2024-03-06T12:54:42;35.60;;;15.47;;
58338;SDS011;68636;52.704;6.536;2024-03-06T12:57:08;32.47;;;14.35;;
58338;SDS011;68636;52.704;6.536;2024-03-06T12:59:34;31.17;;;15.30;;
58338;SDS011;68636;52.704;6.536;2024-03-06T13:02:00;34.20;;;15.13;;
58338;SDS011;68636;52.704;6.536;2024-03-06T13:04:26;32.30;;;14.82;;
58338;SDS011;68636;52.704;6.536;2024-03-06T13:06:52;31.30;;;14.73;;
58338;SDS011;68636;52.704;6.536;2024-03-06T13:09:18;31.98;;;15.15;;
58338;SDS011;68636;52.704;6.536;2024-03-06T13:11:44;30.65;;;14.77;;
58338;SDS011;68636;52.704;6.536;2024-03-06T13:14:11;33.40;;;14.97;;
58338;SDS011;68636;52.704;6.536;2024-03-06T13:16:37;36.67;;;16.27;;
58338;SDS011;68636;52.704;6.536;2024-03-06T13:19:03;32.55;;;15.07;;
58338;SDS011;68636;52.704;6.536;2024-03-06T13:21:29;31.13;;;15.48;;
58338;SDS011;68636;52.704;6.536;2024-03-06T13:23:55;32.92;;;15.50;;
58338;SDS011;68636;52.704;6.536;2024-03-06T13:26:21;32.28;;;15.85;;
58338;SDS011;68636;52.704;6.536;2024-03-06T13:28:47;30.42;;;15.20;;
58338;SDS011;68636;52.704;6.536;2024-03-06T13:31:14;38.53;;;16.02;;
58338;SDS011;68636;52.704;6.536;2024-03-06T13:33:40;31.70;;;15.45;;
58338;SDS011;68636;52.704;6.536;2024-03-06T13:36:06;32.30;;;15.45;;
58338;SDS011;68636;52.704;6.536;2024-03-06T13:38:33;32.47;;;15.60;;
58338;SDS011;68636;52.704;6.536;2024-03-06T13:40:59;34.50;;;14.67;;
58338;SDS011;68636;52.704;6.536;2024-03-06T13:43:27;32.60;;;15.55;;
58338;SDS011;68636;52.704;6.536;2024-03-06T13:45:53;35.37;;;14.77;;
58338;SDS011;68636;52.704;6.536;2024-03-06T13:48:20;33.83;;;14.43;;
58338;SDS011;68636;52.704;6.536;2024-03-06T13:50:47;36.05;;;16.42;;
58338;SDS011;68636;52.704;6.536;2024-03-06T13:53:14;36.47;;;16.37;;
58338;SDS011;68636;52.704;6.536;2024-03-06T13:55:40;35.83;;;15.60;;
58338;SDS011;68636;52.704;6.536;2024-03-06T13:58:07;35.53;;;15.87;;
58338;SDS011;68636;52.704;6.536;2024-03-06T14:00:33;35.20;;;15.70;;
58338;SDS011;68636;52.704;6.536;2024-03-06T14:03:02;37.22;;;16.17;;
58338;SDS011;68636;52.704;6.536;2024-03-06T14:05:29;41.65;;;16.75;;
58338;SDS011;68636;52.704;6.536;2024-03-06T14:07:55;37.20;;;16.40;;
58338;SDS011;68636;52.704;6.536;2024-03-06T14:10:21;36.28;;;15.50;;
58338;SDS011;68636;52.704;6.536;2024-03-06T14:12:49;34.85;;;15.65;;
58338;SDS011;68636;52.704;6.536;2024-03-06T14:15:20;33.70;;;15.20;;
58338;SDS011;68636;52.704;6.536;2024-03-06T14:17:47;35.55;;;15.48;;
58338;SDS011;68636;52.704;6.536;2024-03-06T14:20:13;33.33;;;15.53;;
58338;SDS011;68636;52.704;6.536;2024-03-06T14:25:08;36.92;;;15.43;;
58338;SDS011;68636;52.704;6.536;2024-03-06T14:27:35;37.03;;;15.98;;
58338;SDS011;68636;52.704;6.536;2024-03-06T14:30:05;35.60;;;16.05;;
58338;SDS011;68636;52.704;6.536;2024-03-06T14:32:38;32.88;;;15.10;;
58338;SDS011;68636;52.704;6.536;2024-03-06T14:35:05;33.42;;;15.38;;
58338;SDS011;68636;52.704;6.536;2024-03-06T14:37:31;35.20;;;15.43;;
58338;SDS011;68636;52.704;6.536;2024-03-06T14:39:57;32.33;;;14.02;;
58338;SDS011;68636;52.704;6.536;2024-03-06T14:42:23;32.83;;;14.20;;
58338;SDS011;68636;52.704;6.536;2024-03-06T14:44:49;34.28;;;15.30;;
58338;SDS011;68636;52.704;6.536;2024-03-06T14:47:15;37.45;;;15.23;;
58338;SDS011;68636;52.704;6.536;2024-03-06T14:49:42;37.20;;;16.83;;
58338;SDS011;68636;52.704;6.536;2024-03-06T14:52:11;31.65;;;15.98;;
58338;SDS011;68636;52.704;6.536;2024-03-06T14:54:40;31.40;;;14.73;;
58338;SDS011;68636;52.704;6.536;2024-03-06T14:57:07;35.30;;;16.30;;
58338;SDS011;68636;52.704;6.536;2024-03-06T14:59:33;28.85;;;13.20;;